Time;durP1;ratioP1;P1;durP2;ratioP2;P2;SDS_P1;SDS_P2;PMS_P1;PMS_P2;Temp;Humidity;BMP_temperature;BMP_pressure;BME280_temperature;BME280_humidity;BME280_pressure;Samples;Min_cycle;Max_cycle;Signal;HPM_P1;HPM_P2
2023/08/29 00:01:30;;;;;;;6.72;4.80;;;;;;;;;;5101286;28;20020;-62
2023/08/29 00:03:58;;;;;;;7.10;4.80;;;;;;;;;;5111587;28;20030;-63
2023/08/29 00:06:24;;;;;;;8.18;4.90;;;;;;;;;;5100492;28;20062;-62
2023/08/29 00:08:50;;;;;;;7.18;4.80;;;;;;;;;;5110792;28;20062;-62
2023/08/29 00:11:16;;;;;;;7.45;4.65;;;;;;;;;;5097922;28;20447;-62
2023/08/29 00:13:43;;;;;;;9.20;5.25;;;;;;;;;;5102103;27;20420;-61
2023/08/29 00:16:15;;;;;;;10.15;5.10;;;;;;;;;;5110009;28;20047;-62
2023/08/29 00:18:42;;;;;;;9.77;5.32;;;;;;;;;;5110940;28;20058;-62
2023/08/29 00:21:08;;;;;;;7.07;5.00;;;;;;;;;;5109215;28;20431;-62
2023/08/29 00:23:34;;;;;;;8.27;4.57;;;;;;;;;;5111343;28;20030;-62
2023/08/29 00:26:00;;;;;;;8.68;5.10;;;;;;;;;;5108310;28;20549;-62
2023/08/29 00:28:26;;;;;;;9.02;5.82;;;;;;;;;;5110922;28;20108;-62
2023/08/29 00:30:53;;;;;;;9.15;5.40;;;;;;;;;;5106650;28;20544;-62
2023/08/29 00:33:19;;;;;;;8.77;5.22;;;;;;;;;;5103614;28;20020;-62
2023/08/29 00:35:47;;;;;;;8.05;4.85;;;;;;;;;;5114079;28;20024;-62
2023/08/29 00:38:13;;;;;;;7.45;5.18;;;;;;;;;;5111411;28;20254;-62
2023/08/29 00:40:39;;;;;;;9.55;5.68;;;;;;;;;;5117822;27;20280;-62
2023/08/29 00:43:05;;;;;;;10.73;5.47;;;;;;;;;;5115516;28;20063;-63
2023/08/29 00:45:34;;;;;;;6.88;5.18;;;;;;;;;;5113945;28;20372;-62
2023/08/29 00:48:01;;;;;;;10.02;6.40;;;;;;;;;;5115174;28;20028;-62
2023/08/29 00:50:27;;;;;;;8.80;5.35;;;;;;;;;;5108798;27;20062;-62
2023/08/29 00:52:58;;;;;;;7.88;5.18;;;;;;;;;;5108351;28;20023;-62
2023/08/29 00:55:25;;;;;;;7.32;5.45;;;;;;;;;;5114298;28;20032;-62
2023/08/29 00:57:55;;;;;;;8.80;5.35;;;;;;;;;;5088250;28;20027;-62
2023/08/29 01:00:23;;;;;;;9.93;5.57;;;;;;;;;;5110831;27;20036;-62
2023/08/29 01:02:49;;;;;;;9.18;5.15;;;;;;;;;;5106256;28;20494;-62
2023/08/29 01:05:15;;;;;;;9.48;5.32;;;;;;;;;;5095926;28;20034;-62
2023/08/29 01:07:41;;;;;;;14.43;5.47;;;;;;;;;;5095400;28;20077;-62
2023/08/29 01:10:08;;;;;;;8.43;5.45;;;;;;;;;;5112564;28;20020;-62
2023/08/29 01:12:57;;;;;;;9.02;5.53;;;;;;;;;;5112537;28;20491;-63
2023/08/29 01:15:27;;;;;;;7.60;4.85;;;;;;;;;;5103536;28;20128;-62
2023/08/29 01:18:03;;;;;;;8.85;5.10;;;;;;;;;;5113371;28;20024;-63
2023/08/29 01:20:31;;;;;;;9.20;5.25;;;;;;;;;;5113115;28;20462;-62
2023/08/29 01:23:03;;;;;;;8.63;5.03;;;;;;;;;;5113120;28;20028;-67
2023/08/29 01:25:36;;;;;;;8.02;5.07;;;;;;;;;;5113274;28;20059;-62
2023/08/29 01:28:03;;;;;;;7.80;6.22;;;;;;;;;;5111016;28;20471;-62
2023/08/29 01:30:30;;;;;;;11.05;5.20;;;;;;;;;;5108571;28;20049;-64
2023/08/29 01:32:58;;;;;;;8.45;5.63;;;;;;;;;;5105208;28;20114;-63
2023/08/29 01:35:24;;;;;;;10.57;6.00;;;;;;;;;;5110771;28;20090;-62
2023/08/29 01:37:50;;;;;;;8.90;5.57;;;;;;;;;;5093840;28;20080;-63
2023/08/29 01:40:16;;;;;;;8.38;5.32;;;;;;;;;;5111747;28;20026;-62
2023/08/29 01:42:42;;;;;;;7.85;5.15;;;;;;;;;;5110402;28;20142;-63
2023/08/29 01:45:08;;;;;;;8.40;5.45;;;;;;;;;;5111320;28;20024;-62
2023/08/29 01:47:35;;;;;;;8.45;5.35;;;;;;;;;;5104283;28;20031;-63
2023/08/29 01:50:04;;;;;;;9.15;7.00;;;;;;;;;;5111478;28;20614;-62
2023/08/29 01:52:31;;;;;;;10.00;5.45;;;;;;;;;;5110868;28;20377;-62
2023/08/29 01:54:58;;;;;;;8.85;5.63;;;;;;;;;;5102675;28;20472;-63
2023/08/29 01:57:25;;;;;;;7.78;5.60;;;;;;;;;;5105553;28;20387;-62
2023/08/29 01:59:52;;;;;;;10.02;5.85;;;;;;;;;;5111643;28;20572;-62
2023/08/29 02:02:18;;;;;;;9.05;6.53;;;;;;;;;;5103508;28;20059;-62
2023/08/29 02:04:44;;;;;;;11.50;5.40;;;;;;;;;;5110071;28;20030;-62
2023/08/29 02:07:10;;;;;;;10.05;5.93;;;;;;;;;;5112635;28;20016;-62
2023/08/29 02:09:36;;;;;;;10.05;5.32;;;;;;;;;;5112776;28;20133;-62
2023/08/29 02:12:03;;;;;;;8.48;5.32;;;;;;;;;;5112658;28;20027;-62
2023/08/29 02:14:29;;;;;;;10.73;5.97;;;;;;;;;;5084899;28;20616;-62
2023/08/29 02:16:55;;;;;;;8.30;4.45;;;;;;;;;;5106310;28;20380;-62
2023/08/29 02:19:21;;;;;;;7.82;4.47;;;;;;;;;;5111806;28;20055;-62
2023/08/29 02:21:47;;;;;;;10.98;4.93;;;;;;;;;;5109420;28;20031;-62
2023/08/29 02:24:13;;;;;;;10.27;4.82;;;;;;;;;;5107718;28;20020;-62
2023/08/29 02:26:39;;;;;;;8.05;5.25;;;;;;;;;;5111590;28;20548;-62
2023/08/29 02:29:05;;;;;;;8.45;4.85;;;;;;;;;;5108970;28;20416;-62
2023/08/29 02:31:31;;;;;;;6.60;4.53;;;;;;;;;;5113077;28;20023;-63
2023/08/29 02:33:57;;;;;;;10.07;5.78;;;;;;;;;;5100921;28;20075;-62
2023/08/29 02:36:23;;;;;;;11.20;5.57;;;;;;;;;;5110319;28;20422;-62
2023/08/29 02:38:51;;;;;;;7.25;5.13;;;;;;;;;;5109180;28;20379;-62
2023/08/29 02:41:17;;;;;;;7.43;5.10;;;;;;;;;;5106297;28;20016;-62
2023/08/29 02:43:43;;;;;;;8.90;5.45;;;;;;;;;;5108865;28;20028;-62
2023/08/29 02:46:09;;;;;;;9.98;4.85;;;;;;;;;;5109394;28;20304;-62
2023/08/29 02:48:35;;;;;;;10.02;5.28;;;;;;;;;;5108846;28;20024;-62
2023/08/29 02:51:01;;;;;;;10.35;5.25;;;;;;;;;;5112826;28;20147;-62
2023/08/29 02:53:27;;;;;;;9.23;4.80;;;;;;;;;;5104964;28;20376;-62
2023/08/29 02:55:53;;;;;;;9.10;5.20;;;;;;;;;;5096832;28;20019;-62
2023/08/29 02:58:20;;;;;;;9.15;4.78;;;;;;;;;;5093621;28;20038;-62
2023/08/29 03:00:47;;;;;;;7.40;5.00;;;;;;;;;;5112258;28;20055;-62
2023/08/29 03:03:13;;;;;;;8.13;4.90;;;;;;;;;;5112141;28;20031;-62
2023/08/29 03:05:42;;;;;;;8.55;5.20;;;;;;;;;;5105175;28;20024;-62
2023/08/29 03:08:08;;;;;;;8.48;4.75;;;;;;;;;;5105613;28;20209;-62
2023/08/29 03:10:38;;;;;;;8.25;4.47;;;;;;;;;;5114097;27;20047;-62
2023/08/29 03:13:04;;;;;;;9.90;4.78;;;;;;;;;;5102818;28;20102;-62
2023/08/29 03:15:33;;;;;;;7.32;4.55;;;;;;;;;;5099109;28;20051;-62
2023/08/29 03:18:00;;;;;;;8.77;5.30;;;;;;;;;;5091962;28;20028;-63
2023/08/29 03:20:26;;;;;;;8.77;5.47;;;;;;;;;;5110443;28;20050;-65
2023/08/29 03:22:53;;;;;;;8.73;4.88;;;;;;;;;;5107852;28;20015;-62
2023/08/29 03:25:22;;;;;;;10.82;5.28;;;;;;;;;;5108024;28;20030;-63
2023/08/29 03:27:49;;;;;;;8.27;5.22;;;;;;;;;;5105474;28;20115;-62
2023/08/29 03:30:15;;;;;;;10.07;4.45;;;;;;;;;;5099972;28;20018;-62
2023/08/29 03:32:41;;;;;;;10.48;5.22;;;;;;;;;;5107744;28;20020;-62
2023/08/29 03:35:07;;;;;;;11.18;5.88;;;;;;;;;;5111483;28;20023;-62
2023/08/29 03:37:34;;;;;;;8.98;4.47;;;;;;;;;;5108635;28;20023;-62
2023/08/29 03:40:00;;;;;;;9.25;4.45;;;;;;;;;;5109379;28;20063;-62
2023/08/29 03:42:26;;;;;;;8.25;4.50;;;;;;;;;;5110847;28;20077;-63
2023/08/29 03:44:52;;;;;;;5.90;4.20;;;;;;;;;;5111302;28;20020;-62
2023/08/29 03:47:19;;;;;;;8.52;5.40;;;;;;;;;;5107127;28;20444;-62
2023/08/29 03:49:45;;;;;;;11.70;5.03;;;;;;;;;;5112386;27;20068;-62
2023/08/29 03:52:11;;;;;;;10.40;4.47;;;;;;;;;;5102717;28;20494;-62
2023/08/29 03:54:37;;;;;;;12.02;5.32;;;;;;;;;;5098804;28;20020;-62
2023/08/29 03:57:03;;;;;;;10.70;5.03;;;;;;;;;;5093469;28;20024;-62
2023/08/29 03:59:29;;;;;;;7.28;4.43;;;;;;;;;;5108437;28;20407;-62
2023/08/29 04:01:55;;;;;;;7.20;4.65;;;;;;;;;;5106494;28;20448;-62
2023/08/29 04:04:22;;;;;;;10.15;5.03;;;;;;;;;;5103382;28;20026;-62
2023/08/29 04:06:48;;;;;;;9.27;5.05;;;;;;;;;;5104253;28;20064;-62
2023/08/29 04:09:14;;;;;;;11.02;4.95;;;;;;;;;;5097674;28;20037;-62
2023/08/29 04:11:40;;;;;;;10.30;5.18;;;;;;;;;;5106656;28;20028;-62
2023/08/29 04:14:06;;;;;;;6.40;4.40;;;;;;;;;;5103254;28;20525;-62
2023/08/29 04:16:32;;;;;;;9.68;5.00;;;;;;;;;;5110037;28;20024;-62
2023/08/29 04:18:59;;;;;;;9.63;4.55;;;;;;;;;;5092919;28;20030;-62
2023/08/29 04:21:25;;;;;;;9.90;5.10;;;;;;;;;;5108551;28;20028;-62
2023/08/29 04:23:51;;;;;;;7.40;4.47;;;;;;;;;;5110531;28;20514;-62
2023/08/29 04:26:18;;;;;;;6.57;4.70;;;;;;;;;;5108844;28;20028;-62
2023/08/29 04:28:44;;;;;;;10.77;5.40;;;;;;;;;;5106038;28;20046;-62
2023/08/29 04:31:11;;;;;;;7.85;4.85;;;;;;;;;;5105669;28;20062;-62
2023/08/29 04:33:37;;;;;;;11.50;4.88;;;;;;;;;;5090981;28;20086;-62
2023/08/29 04:36:03;;;;;;;7.07;4.22;;;;;;;;;;5107134;28;20107;-62
2023/08/29 04:38:31;;;;;;;7.55;4.85;;;;;;;;;;5104085;28;20031;-63
2023/08/29 04:40:57;;;;;;;8.30;4.50;;;;;;;;;;5108467;28;20489;-63
2023/08/29 04:43:24;;;;;;;11.32;5.55;;;;;;;;;;5110543;28;20051;-62
2023/08/29 04:45:50;;;;;;;7.82;4.32;;;;;;;;;;5089686;28;20069;-63
2023/08/29 04:48:17;;;;;;;6.38;4.05;;;;;;;;;;5099573;28;20027;-62
2023/08/29 04:50:45;;;;;;;7.22;4.60;;;;;;;;;;5107328;28;20019;-62
2023/08/29 04:53:11;;;;;;;7.43;4.35;;;;;;;;;;5106413;28;20038;-62
2023/08/29 04:55:38;;;;;;;7.38;4.53;;;;;;;;;;5101527;28;20032;-62
2023/08/29 04:58:04;;;;;;;7.40;4.35;;;;;;;;;;5109575;28;20072;-61
2023/08/29 05:00:30;;;;;;;10.10;4.30;;;;;;;;;;5110221;28;20032;-62
2023/08/29 05:02:56;;;;;;;9.57;4.55;;;;;;;;;;5102333;28;20066;-62
2023/08/29 05:05:22;;;;;;;7.40;4.40;;;;;;;;;;5109792;28;20463;-65
2023/08/29 05:07:49;;;;;;;7.53;5.65;;;;;;;;;;5109075;28;20020;-63
2023/08/29 05:10:15;;;;;;;7.97;4.53;;;;;;;;;;5110491;28;20059;-63
2023/08/29 05:12:41;;;;;;;9.35;5.22;;;;;;;;;;5112096;28;20277;-62
2023/08/29 05:15:08;;;;;;;7.97;4.93;;;;;;;;;;5106977;28;20047;-63
2023/08/29 05:17:34;;;;;;;9.82;5.07;;;;;;;;;;5114127;28;20043;-62
2023/08/29 05:20:00;;;;;;;9.32;4.55;;;;;;;;;;5101795;28;20124;-63
2023/08/29 05:22:26;;;;;;;9.57;4.63;;;;;;;;;;5106882;28;20030;-62
2023/08/29 05:24:52;;;;;;;13.20;5.13;;;;;;;;;;5105676;28;20069;-62
2023/08/29 05:27:18;;;;;;;10.98;5.25;;;;;;;;;;5113693;28;20020;-62
2023/08/29 05:29:44;;;;;;;10.93;4.97;;;;;;;;;;5104756;28;20035;-63
2023/08/29 05:32:10;;;;;;;9.35;4.53;;;;;;;;;;5110495;28;20039;-62
2023/08/29 05:34:36;;;;;;;10.52;4.90;;;;;;;;;;5108016;28;20375;-62
2023/08/29 05:37:03;;;;;;;11.88;5.00;;;;;;;;;;5112180;28;20019;-63
2023/08/29 05:39:29;;;;;;;11.65;4.95;;;;;;;;;;5113145;28;20455;-62
2023/08/29 05:41:55;;;;;;;10.48;4.70;;;;;;;;;;5091322;28;20024;-62
2023/08/29 05:44:22;;;;;;;9.32;4.38;;;;;;;;;;5112414;27;20467;-63
2023/08/29 05:46:48;;;;;;;12.90;5.38;;;;;;;;;;5107255;27;20028;-63
2023/08/29 05:49:15;;;;;;;6.75;4.57;;;;;;;;;;5111051;28;20475;-62
2023/08/29 05:51:41;;;;;;;11.75;5.20;;;;;;;;;;5110243;28;20023;-63
2023/08/29 05:54:07;;;;;;;6.82;4.68;;;;;;;;;;5112253;28;20055;-63
2023/08/29 05:56:33;;;;;;;8.75;4.80;;;;;;;;;;5113779;28;20058;-62
2023/08/29 05:58:59;;;;;;;7.25;4.85;;;;;;;;;;5103217;28;20047;-62
2023/08/29 06:01:26;;;;;;;10.00;4.93;;;;;;;;;;5108922;28;20055;-64
2023/08/29 06:03:53;;;;;;;8.30;5.13;;;;;;;;;;5113783;28;20356;-66
2023/08/29 06:06:19;;;;;;;9.52;4.90;;;;;;;;;;5100836;28;20639;-62
2023/08/29 06:08:46;;;;;;;7.80;4.80;;;;;;;;;;5111931;28;20436;-63
2023/08/29 06:11:13;;;;;;;7.80;5.20;;;;;;;;;;5106366;28;20390;-62
2023/08/29 06:13:39;;;;;;;10.70;5.43;;;;;;;;;;5108413;28;20024;-63
2023/08/29 06:16:05;;;;;;;7.88;4.35;;;;;;;;;;5111941;28;20181;-62
2023/08/29 06:18:33;;;;;;;7.95;5.00;;;;;;;;;;5103648;28;20383;-62
2023/08/29 06:20:59;;;;;;;7.57;4.25;;;;;;;;;;5111661;28;20337;-63
2023/08/29 06:23:25;;;;;;;10.95;4.85;;;;;;;;;;5109883;28;20813;-62
2023/08/29 06:25:52;;;;;;;9.13;4.20;;;;;;;;;;5104204;28;20046;-62
2023/08/29 06:28:18;;;;;;;9.48;4.65;;;;;;;;;;5107257;27;20020;-62
2023/08/29 06:30:44;;;;;;;10.05;4.78;;;;;;;;;;5108355;28;20461;-63
2023/08/29 06:33:10;;;;;;;8.05;4.18;;;;;;;;;;5108429;28;20030;-63
2023/08/29 06:35:39;;;;;;;9.82;5.10;;;;;;;;;;5103563;27;20032;-63
2023/08/29 06:38:06;;;;;;;8.50;4.38;;;;;;;;;;5110967;27;20031;-63
2023/08/29 06:40:32;;;;;;;10.95;4.47;;;;;;;;;;5114001;27;20035;-63
2023/08/29 06:42:58;;;;;;;9.82;5.20;;;;;;;;;;5111648;28;20030;-63
2023/08/29 06:45:24;;;;;;;7.32;3.85;;;;;;;;;;5107369;28;20027;-63
2023/08/29 06:47:51;;;;;;;7.47;4.85;;;;;;;;;;5110354;27;20502;-65
2023/08/29 06:50:17;;;;;;;7.72;4.50;;;;;;;;;;5108244;28;20553;-63
2023/08/29 06:52:45;;;;;;;6.93;4.03;;;;;;;;;;5085835;28;20105;-63
2023/08/29 06:55:11;;;;;;;9.60;4.95;;;;;;;;;;5105303;28;20058;-62
2023/08/29 06:57:37;;;;;;;8.35;4.30;;;;;;;;;;5101911;28;20140;-62
2023/08/29 07:00:04;;;;;;;8.35;4.15;;;;;;;;;;5107768;28;20467;-62
2023/08/29 07:02:30;;;;;;;7.35;4.57;;;;;;;;;;5102234;28;20058;-62
2023/08/29 07:04:56;;;;;;;10.00;4.82;;;;;;;;;;5106482;28;20027;-62
2023/08/29 07:07:22;;;;;;;6.75;4.55;;;;;;;;;;5097583;28;20015;-63
2023/08/29 07:09:49;;;;;;;7.25;4.57;;;;;;;;;;5110080;28;20047;-64
2023/08/29 07:12:15;;;;;;;8.48;3.90;;;;;;;;;;5106212;28;20369;-62
2023/08/29 07:14:41;;;;;;;5.43;3.33;;;;;;;;;;5106973;28;20078;-62
2023/08/29 07:17:07;;;;;;;9.43;4.22;;;;;;;;;;5109847;28;20471;-62
2023/08/29 07:19:33;;;;;;;6.70;3.85;;;;;;;;;;5114215;28;20045;-63
2023/08/29 07:21:59;;;;;;;7.32;3.70;;;;;;;;;;5113346;28;20035;-62
2023/08/29 07:24:25;;;;;;;9.32;4.70;;;;;;;;;;5107264;28;20067;-63
2023/08/29 07:26:51;;;;;;;5.78;3.65;;;;;;;;;;5107740;28;20403;-63
2023/08/29 07:29:19;;;;;;;6.60;3.85;;;;;;;;;;5104185;27;20060;-63
2023/08/29 07:31:46;;;;;;;13.15;4.75;;;;;;;;;;5107165;28;20032;-63
2023/08/29 07:34:15;;;;;;;8.05;3.30;;;;;;;;;;5108539;28;20024;-63
2023/08/29 07:36:41;;;;;;;6.18;4.18;;;;;;;;;;5092164;28;20286;-63
2023/08/29 07:39:07;;;;;;;5.15;3.45;;;;;;;;;;5103396;28;20099;-65
2023/08/29 07:41:33;;;;;;;7.80;3.50;;;;;;;;;;5105091;28;20055;-62
2023/08/29 07:43:59;;;;;;;11.32;5.18;;;;;;;;;;5111013;28;20024;-63
2023/08/29 07:46:26;;;;;;;6.20;3.53;;;;;;;;;;5111319;28;20406;-63
2023/08/29 07:48:53;;;;;;;6.80;4.32;;;;;;;;;;5111118;28;20020;-63
2023/08/29 07:51:19;;;;;;;7.25;4.05;;;;;;;;;;5119966;27;20019;-63
2023/08/29 07:53:45;;;;;;;6.63;3.75;;;;;;;;;;5101848;28;20039;-63
2023/08/29 07:56:11;;;;;;;6.10;4.18;;;;;;;;;;5110643;28;20061;-63
2023/08/29 07:58:37;;;;;;;4.43;3.35;;;;;;;;;;5113732;27;20703;-63
2023/08/29 08:01:03;;;;;;;6.88;3.40;;;;;;;;;;5115030;27;20024;-63
2023/08/29 08:03:30;;;;;;;5.93;3.45;;;;;;;;;;5107817;28;20027;-65
2023/08/29 08:05:56;;;;;;;7.78;4.88;;;;;;;;;;5089429;28;20500;-63
2023/08/29 08:08:22;;;;;;;8.68;4.40;;;;;;;;;;5108877;28;20414;-63
2023/08/29 08:10:48;;;;;;;6.50;4.13;;;;;;;;;;5105296;28;20092;-63
2023/08/29 08:13:14;;;;;;;6.47;3.45;;;;;;;;;;5107012;28;20016;-66
2023/08/29 08:15:41;;;;;;;6.57;4.55;;;;;;;;;;5080181;28;20062;-63
2023/08/29 08:18:08;;;;;;;9.05;4.30;;;;;;;;;;5109813;28;20031;-63
2023/08/29 08:20:34;;;;;;;7.97;4.25;;;;;;;;;;5110577;28;20074;-63
2023/08/29 08:23:00;;;;;;;5.03;3.80;;;;;;;;;;5077317;28;20138;-63
2023/08/29 08:25:26;;;;;;;5.32;3.80;;;;;;;;;;5110556;28;20433;-63
2023/08/29 08:27:52;;;;;;;4.30;3.30;;;;;;;;;;5083108;28;20023;-63
2023/08/29 08:30:18;;;;;;;4.90;3.85;;;;;;;;;;5088709;28;20024;-63
2023/08/29 08:32:45;;;;;;;6.70;3.90;;;;;;;;;;5108209;28;20027;-63
2023/08/29 08:35:11;;;;;;;7.35;4.35;;;;;;;;;;5111405;28;20115;-63
2023/08/29 08:37:37;;;;;;;7.97;4.28;;;;;;;;;;5109412;28;20123;-63
2023/08/29 08:40:10;;;;;;;6.43;4.10;;;;;;;;;;5108878;28;20019;-63
2023/08/29 08:42:44;;;;;;;4.75;3.40;;;;;;;;;;5099527;28;20028;-63
2023/08/29 08:45:10;;;;;;;5.82;4.57;;;;;;;;;;5109697;28;20147;-63
2023/08/29 08:47:37;;;;;;;5.03;3.70;;;;;;;;;;5090817;28;20110;-63
2023/08/29 08:50:09;;;;;;;6.18;4.03;;;;;;;;;;5096876;28;20020;-63
2023/08/29 08:52:36;;;;;;;10.98;5.10;;;;;;;;;;5099654;28;20051;-63
2023/08/29 08:55:02;;;;;;;7.53;4.35;;;;;;;;;;5108130;28;20020;-63
2023/08/29 08:57:28;;;;;;;7.70;4.00;;;;;;;;;;5114120;28;20535;-63
2023/08/29 08:59:57;;;;;;;11.88;5.38;;;;;;;;;;5113691;28;20399;-63
2023/08/29 09:02:23;;;;;;;7.32;3.70;;;;;;;;;;5113844;28;20024;-63
2023/08/29 09:04:49;;;;;;;3.95;3.15;;;;;;;;;;5112034;28;20052;-63
2023/08/29 09:07:15;;;;;;;6.18;3.30;;;;;;;;;;5109210;28;20024;-63
2023/08/29 09:09:41;;;;;;;4.35;2.90;;;;;;;;;;5101819;28;20025;-63
2023/08/29 09:12:08;;;;;;;12.02;3.97;;;;;;;;;;5114348;28;20103;-63
2023/08/29 09:14:34;;;;;;;7.28;3.83;;;;;;;;;;5112716;28;20472;-63
2023/08/29 09:17:00;;;;;;;6.53;3.20;;;;;;;;;;5094216;28;20024;-63
2023/08/29 09:19:29;;;;;;;6.00;2.90;;;;;;;;;;5113135;28;20422;-63
2023/08/29 09:21:55;;;;;;;16.15;4.78;;;;;;;;;;5114335;28;20054;-63
2023/08/29 09:24:34;;;;;;;3.45;2.58;;;;;;;;;;5110620;28;20019;-63
2023/08/29 09:27:05;;;;;;;8.15;3.35;;;;;;;;;;5107113;28;20042;-63
2023/08/29 09:29:31;;;;;;;7.53;3.00;;;;;;;;;;5111798;28;20023;-63
2023/08/29 09:32:00;;;;;;;6.53;2.60;;;;;;;;;;5112633;28;20026;-64
2023/08/29 09:34:27;;;;;;;4.60;2.60;;;;;;;;;;5113602;28;20436;-63
2023/08/29 09:36:54;;;;;;;5.70;2.70;;;;;;;;;;5112130;28;20383;-63
2023/08/29 09:39:21;;;;;;;8.57;3.60;;;;;;;;;;5096379;28;20057;-63
2023/08/29 09:42:00;;;;;;;7.65;3.17;;;;;;;;;;5101925;28;20453;-63
2023/08/29 09:44:27;;;;;;;5.88;2.58;;;;;;;;;;5103148;28;20023;-63
2023/08/29 09:46:53;;;;;;;4.50;2.85;;;;;;;;;;5112925;28;20032;-63
2023/08/29 09:49:19;;;;;;;4.38;2.67;;;;;;;;;;5106908;28;20020;-63
2023/08/29 09:51:46;;;;;;;8.65;3.67;;;;;;;;;;5114075;28;20023;-63
2023/08/29 09:54:13;;;;;;;6.85;3.15;;;;;;;;;;5093941;28;20038;-63
2023/08/29 09:56:42;;;;;;;6.95;2.90;;;;;;;;;;5110180;28;20028;-63
2023/08/29 09:59:12;;;;;;;4.68;2.80;;;;;;;;;;5102173;28;20073;-63
2023/08/29 10:01:40;;;;;;;6.40;3.30;;;;;;;;;;5112160;28;20062;-63
2023/08/29 10:04:09;;;;;;;10.20;2.70;;;;;;;;;;5112633;28;20035;-63
2023/08/29 10:06:36;;;;;;;9.75;3.33;;;;;;;;;;5121328;27;20023;-63
2023/08/29 10:09:03;;;;;;;6.07;2.72;;;;;;;;;;5111520;28;20024;-63
2023/08/29 10:11:29;;;;;;;5.32;3.10;;;;;;;;;;5111804;28;20023;-63
2023/08/29 10:13:56;;;;;;;4.50;2.15;;;;;;;;;;5092539;28;20027;-63
2023/08/29 10:16:22;;;;;;;5.93;2.38;;;;;;;;;;5112568;28;20084;-63
2023/08/29 10:18:49;;;;;;;11.48;3.30;;;;;;;;;;5106967;28;20067;-62
2023/08/29 10:21:15;;;;;;;4.38;2.60;;;;;;;;;;5112775;28;20031;-62
2023/08/29 10:23:41;;;;;;;10.68;3.33;;;;;;;;;;5111875;27;20027;-62
2023/08/29 10:26:07;;;;;;;5.90;2.42;;;;;;;;;;5109106;28;20035;-62
2023/08/29 10:28:34;;;;;;;6.43;2.58;;;;;;;;;;5102440;28;20020;-62
2023/08/29 10:31:03;;;;;;;5.95;2.78;;;;;;;;;;5109804;28;20098;-62
2023/08/29 10:33:29;;;;;;;10.77;3.08;;;;;;;;;;5106503;28;20048;-62
2023/08/29 10:35:55;;;;;;;6.57;2.80;;;;;;;;;;5085635;28;20555;-62
2023/08/29 10:38:24;;;;;;;7.07;2.88;;;;;;;;;;5111634;28;20383;-62
2023/08/29 10:41:02;;;;;;;10.02;3.38;;;;;;;;;;5101108;28;20051;-62
2023/08/29 10:43:29;;;;;;;7.70;3.55;;;;;;;;;;5091998;28;20111;-63
2023/08/29 10:45:59;;;;;;;8.45;3.38;;;;;;;;;;5107417;28;20028;-62
2023/08/29 10:48:44;;;;;;;7.80;3.92;;;;;;;;;;5102715;28;20141;-62
2023/08/29 10:51:14;;;;;;;6.85;2.42;;;;;;;;;;5110178;28;20478;-62
2023/08/29 10:53:43;;;;;;;15.20;3.35;;;;;;;;;;5109564;28;20518;-62
2023/08/29 10:56:09;;;;;;;10.95;3.20;;;;;;;;;;5101368;28;20036;-61
2023/08/29 10:58:39;;;;;;;7.32;2.78;;;;;;;;;;5088527;28;20522;-62
2023/08/29 11:01:06;;;;;;;6.00;2.95;;;;;;;;;;5077252;28;20051;-62
2023/08/29 11:03:49;;;;;;;6.80;3.13;;;;;;;;;;5112051;28;20038;-62
2023/08/29 11:06:18;;;;;;;5.32;2.70;;;;;;;;;;5111522;28;20035;-62
2023/08/29 11:08:45;;;;;;;9.32;3.08;;;;;;;;;;5109675;28;20085;-57
2023/08/29 11:11:14;;;;;;;7.45;2.85;;;;;;;;;;5104441;28;20348;-57
2023/08/29 11:13:59;;;;;;;8.80;2.97;;;;;;;;;;5088923;28;20063;-57
2023/08/29 11:16:26;;;;;;;9.60;4.13;;;;;;;;;;5104129;28;21089;-57
2023/08/29 11:19:11;;;;;;;7.55;3.15;;;;;;;;;;5101369;28;20050;-57
2023/08/29 11:21:37;;;;;;;8.00;2.95;;;;;;;;;;5105360;28;20059;-56
2023/08/29 11:24:07;;;;;;;5.57;2.95;;;;;;;;;;5104565;28;20038;-57
2023/08/29 11:26:38;;;;;;;12.98;3.20;;;;;;;;;;5104784;28;20220;-56
2023/08/29 11:29:08;;;;;;;5.13;2.63;;;;;;;;;;5101661;28;20024;-57
2023/08/29 11:31:40;;;;;;;14.48;3.42;;;;;;;;;;5106590;27;20031;-56
2023/08/29 11:34:17;;;;;;;6.72;3.22;;;;;;;;;;5080257;28;20392;-57
2023/08/29 11:36:45;;;;;;;19.40;4.07;;;;;;;;;;5105670;28;20095;-57
2023/08/29 11:39:11;;;;;;;6.47;3.00;;;;;;;;;;5100864;28;20111;-57
2023/08/29 11:41:37;;;;;;;9.57;3.72;;;;;;;;;;5102692;28;20027;-56
2023/08/29 11:44:03;;;;;;;10.23;2.58;;;;;;;;;;5082390;28;20375;-57
2023/08/29 11:46:33;;;;;;;11.98;3.78;;;;;;;;;;5101563;28;20035;-57
2023/08/29 11:49:00;;;;;;;9.18;3.50;;;;;;;;;;5103643;27;20106;-56
2023/08/29 11:51:26;;;;;;;7.85;3.42;;;;;;;;;;5103914;28;20089;-56
2023/08/29 11:53:52;;;;;;;6.45;2.80;;;;;;;;;;5099985;28;20035;-56
2023/08/29 11:56:19;;;;;;;5.63;3.10;;;;;;;;;;5104976;28;20032;-57
2023/08/29 11:58:45;;;;;;;10.20;3.08;;;;;;;;;;5097455;28;20028;-57
2023/08/29 12:01:12;;;;;;;9.70;3.28;;;;;;;;;;5095301;28;20103;-57
2023/08/29 12:03:39;;;;;;;8.32;3.28;;;;;;;;;;5090348;28;20028;-57
2023/08/29 12:06:11;;;;;;;13.70;2.95;;;;;;;;;;5108462;27;20028;-60
2023/08/29 12:08:39;;;;;;;6.70;2.92;;;;;;;;;;5092646;28;20023;-57
2023/08/29 12:11:09;;;;;;;10.95;3.13;;;;;;;;;;5103698;28;20032;-57
2023/08/29 12:13:40;;;;;;;7.32;3.10;;;;;;;;;;5102206;28;20425;-57
2023/08/29 12:16:16;;;;;;;7.13;2.80;;;;;;;;;;5095859;28;20453;-57
2023/08/29 12:18:43;;;;;;;9.40;4.00;;;;;;;;;;5100275;28;20030;-56
2023/08/29 12:21:16;;;;;;;5.95;2.92;;;;;;;;;;5099857;28;20098;-58
2023/08/29 12:23:43;;;;;;;10.93;3.55;;;;;;;;;;5098380;28;20503;-57
2023/08/29 12:26:10;;;;;;;8.13;3.22;;;;;;;;;;5101732;28;20028;-57
2023/08/29 12:28:37;;;;;;;7.18;2.97;;;;;;;;;;5101965;28;20030;-57
2023/08/29 12:31:03;;;;;;;8.10;3.67;;;;;;;;;;5101566;28;20637;-57
2023/08/29 12:33:30;;;;;;;7.13;2.92;;;;;;;;;;5102649;28;20058;-58
2023/08/29 12:35:56;;;;;;;7.63;2.95;;;;;;;;;;5073440;28;20131;-56
2023/08/29 12:38:26;;;;;;;9.50;3.00;;;;;;;;;;5104870;28;20546;-56
2023/08/29 12:40:53;;;;;;;10.45;3.60;;;;;;;;;;5102965;28;20048;-57
2023/08/29 12:43:19;;;;;;;6.68;3.78;;;;;;;;;;5103605;28;20028;-57
2023/08/29 12:45:45;;;;;;;8.18;2.90;;;;;;;;;;5101717;28;20151;-57
2023/08/29 12:48:12;;;;;;;12.23;4.07;;;;;;;;;;5105221;28;20031;-57
2023/08/29 12:50:38;;;;;;;8.65;3.33;;;;;;;;;;5097941;28;20502;-58
2023/08/29 12:53:05;;;;;;;4.53;2.90;;;;;;;;;;5096927;28;20525;-57
2023/08/29 12:55:31;;;;;;;13.52;4.35;;;;;;;;;;5101942;28;20361;-57
2023/08/29 12:57:58;;;;;;;11.65;3.60;;;;;;;;;;5103679;28;20448;-57
2023/08/29 13:00:25;;;;;;;6.25;3.15;;;;;;;;;;5101957;28;20027;-59
2023/08/29 13:02:51;;;;;;;5.90;3.08;;;;;;;;;;5099653;28;20036;-57
2023/08/29 13:05:19;;;;;;;6.50;3.10;;;;;;;;;;5097482;28;20437;-57
2023/08/29 13:07:45;;;;;;;6.60;3.30;;;;;;;;;;5101479;28;20054;-59
2023/08/29 13:10:12;;;;;;;8.13;3.63;;;;;;;;;;5098337;28;20059;-57
2023/08/29 13:12:38;;;;;;;13.48;3.50;;;;;;;;;;5106955;28;20023;-57
2023/08/29 13:15:06;;;;;;;13.95;3.97;;;;;;;;;;5102051;28;20048;-58
2023/08/29 13:17:33;;;;;;;9.00;3.13;;;;;;;;;;5104321;28;20035;-57
2023/08/29 13:19:59;;;;;;;7.85;3.08;;;;;;;;;;5101590;28;20027;-58
2023/08/29 13:22:25;;;;;;;6.63;3.00;;;;;;;;;;5105438;28;20143;-58
2023/08/29 13:24:51;;;;;;;12.65;2.90;;;;;;;;;;5095242;28;20035;-57
2023/08/29 13:27:18;;;;;;;8.48;3.90;;;;;;;;;;5101318;28;20070;-57
2023/08/29 13:29:44;;;;;;;8.80;3.42;;;;;;;;;;5101029;28;20283;-58
2023/08/29 13:32:10;;;;;;;11.85;3.17;;;;;;;;;;5104901;28;20220;-57
2023/08/29 13:34:36;;;;;;;11.90;2.92;;;;;;;;;;5104244;28;20024;-57
2023/08/29 13:37:02;;;;;;;12.25;3.50;;;;;;;;;;5100565;28;20437;-57
2023/08/29 13:39:28;;;;;;;8.20;2.97;;;;;;;;;;5096143;28;20059;-57
2023/08/29 13:41:54;;;;;;;6.97;2.83;;;;;;;;;;5102835;28;20399;-57
2023/08/29 13:44:21;;;;;;;8.68;3.22;;;;;;;;;;5085615;28;20059;-57
2023/08/29 13:46:47;;;;;;;9.80;2.97;;;;;;;;;;5107298;27;20581;-57
2023/08/29 13:49:13;;;;;;;8.63;3.83;;;;;;;;;;5105702;28;20032;-57
2023/08/29 13:51:39;;;;;;;11.15;3.75;;;;;;;;;;5104527;28;20539;-57
2023/08/29 13:54:05;;;;;;;9.35;3.38;;;;;;;;;;5102489;28;20030;-57
2023/08/29 13:56:31;;;;;;;9.10;3.00;;;;;;;;;;5107481;28;20239;-57
2023/08/29 13:58:58;;;;;;;9.63;3.00;;;;;;;;;;5103900;28;20110;-57
2023/08/29 14:01:24;;;;;;;6.45;2.80;;;;;;;;;;5100318;28;20030;-57
2023/08/29 14:03:50;;;;;;;6.30;2.88;;;;;;;;;;5082945;28;20028;-56
2023/08/29 14:06:16;;;;;;;9.00;3.80;;;;;;;;;;5105192;27;20058;-57
2023/08/29 14:08:42;;;;;;;7.20;3.88;;;;;;;;;;5084566;28;20495;-57
2023/08/29 14:11:09;;;;;;;10.35;3.53;;;;;;;;;;5107289;28;20053;-58
2023/08/29 14:13:35;;;;;;;6.32;2.45;;;;;;;;;;5107789;28;20047;-63
2023/08/29 14:16:05;;;;;;;7.45;2.72;;;;;;;;;;5101171;28;20054;-64
2023/08/29 14:18:34;;;;;;;5.60;2.40;;;;;;;;;;5110513;28;20031;-65
2023/08/29 14:21:00;;;;;;;5.28;2.33;;;;;;;;;;5099599;28;20020;-64
2023/08/29 14:23:26;;;;;;;7.28;2.97;;;;;;;;;;5105786;28;20100;-64
2023/08/29 14:25:53;;;;;;;6.25;2.65;;;;;;;;;;5104334;28;20062;-64
2023/08/29 14:28:19;;;;;;;7.55;2.80;;;;;;;;;;5102475;28;20019;-63
2023/08/29 14:30:45;;;;;;;7.63;2.72;;;;;;;;;;5106502;28;20071;-63
2023/08/29 14:33:12;;;;;;;7.68;3.38;;;;;;;;;;5106415;28;20503;-65
2023/08/29 14:35:39;;;;;;;7.28;3.60;;;;;;;;;;5108162;28;20031;-64
2023/08/29 14:38:05;;;;;;;3.65;2.83;;;;;;;;;;5108188;28;20609;-65
2023/08/29 14:40:31;;;;;;;6.32;2.60;;;;;;;;;;5108648;28;20030;-65